Time;durP1;ratioP1;P1;durP2;ratioP2;P2;SDS_P1;SDS_P2;PMS_P1;PMS_P2;Temp;Humidity;BMP_temperature;BMP_pressure;BME280_temperature;BME280_humidity;BME280_pressure;Samples;Min_cycle;Max_cycle;Signal;HPM_P1;HPM_P2
2023/01/28 00:00:35;;;;;;;3.30;3.00;;;18.90;48.40;;;;;;4975331;28;20221;-72
2023/01/28 00:03:00;;;;;;;3.30;3.00;;;18.90;48.40;;;;;;4975835;28;20189;-72
2023/01/28 00:05:28;;;;;;;4.18;3.33;;;18.90;48.30;;;;;;4967123;28;20257;-72
2023/01/28 00:07:55;;;;;;;3.47;3.17;;;18.90;48.40;;;;;;4970154;28;20188;-72
2023/01/28 00:10:21;;;;;;;3.30;2.70;;;18.90;48.40;;;;;;4962076;28;20192;-72
2023/01/28 00:12:47;;;;;;;3.35;3.05;;;18.80;48.30;;;;;;4958886;28;20193;-72
2023/01/28 00:15:13;;;;;;;3.17;2.97;;;18.90;48.40;;;;;;4972369;28;20192;-71
2023/01/28 00:17:39;;;;;;;2.78;2.58;;;18.90;48.40;;;;;;4974764;28;20280;-72
2023/01/28 00:20:05;;;;;;;3.15;2.95;;;18.90;48.40;;;;;;4954538;28;20313;-72
2023/01/28 00:22:32;;;;;;;3.25;2.95;;;18.80;48.30;;;;;;4986317;28;20185;-72
2023/01/28 00:24:58;;;;;;;3.80;3.22;;;18.90;48.40;;;;;;4977592;28;20208;-72
2023/01/28 00:27:24;;;;;;;2.65;2.45;;;18.90;48.40;;;;;;4970390;28;20189;-72
2023/01/28 00:29:50;;;;;;;3.38;3.10;;;18.80;48.30;;;;;;4968495;28;20227;-72
2023/01/28 00:32:16;;;;;;;3.17;2.85;;;18.90;48.30;;;;;;4973875;28;20189;-71
2023/01/28 00:34:41;;;;;;;3.63;3.33;;;18.90;48.40;;;;;;4965850;28;20197;-71
2023/01/28 00:37:08;;;;;;;3.10;2.88;;;18.80;48.30;;;;;;4959271;28;20190;-72
2023/01/28 00:39:33;;;;;;;3.33;2.83;;;18.90;48.40;;;;;;4941826;28;20217;-72
2023/01/28 00:42:00;;;;;;;2.80;2.60;;;18.80;48.30;;;;;;4948339;28;20186;-72
2023/01/28 00:44:26;;;;;;;3.50;2.90;;;18.90;48.40;;;;;;4941386;28;20268;-71
2023/01/28 00:46:52;;;;;;;3.30;3.00;;;18.90;48.40;;;;;;4967565;28;20189;-71
2023/01/28 00:49:21;;;;;;;3.53;3.20;;;18.90;48.40;;;;;;4952816;28;20223;-71
2023/01/28 00:51:47;;;;;;;3.85;3.05;;;18.90;48.40;;;;;;4975567;28;20200;-71
2023/01/28 00:54:15;;;;;;;3.33;3.03;;;18.90;48.40;;;;;;4976502;28;20573;-71
2023/01/28 00:56:41;;;;;;;2.90;2.55;;;18.90;48.50;;;;;;4966818;28;20204;-71
2023/01/28 00:59:06;;;;;;;3.00;2.80;;;18.80;48.40;;;;;;4956908;28;20209;-71
2023/01/28 01:01:33;;;;;;;2.88;2.58;;;18.80;48.30;;;;;;4974145;28;20221;-71
2023/01/28 01:04:01;;;;;;;2.88;2.67;;;18.80;48.30;;;;;;4974716;28;20173;-71
2023/01/28 01:06:32;;;;;;;3.47;2.42;;;18.80;48.40;;;;;;4973617;28;20609;-70
2023/01/28 01:08:59;;;;;;;2.90;2.67;;;18.80;48.40;;;;;;4975839;28;20571;-71
2023/01/28 01:11:24;;;;;;;3.10;2.90;;;18.80;48.40;;;;;;4975654;28;20185;-72
2023/01/28 01:13:57;;;;;;;2.83;2.63;;;18.80;48.40;;;;;;4990994;28;20220;-72
2023/01/28 01:16:27;;;;;;;3.15;2.92;;;18.80;48.40;;;;;;4967806;28;20189;-72
2023/01/28 01:18:54;;;;;;;2.80;2.60;;;18.80;48.40;;;;;;4972560;28;20217;-71
2023/01/28 01:21:24;;;;;;;3.13;2.83;;;18.80;48.40;;;;;;4954068;28;20216;-71
2023/01/28 01:23:50;;;;;;;2.90;2.70;;;18.80;48.40;;;;;;4975472;28;20193;-72
2023/01/28 01:26:16;;;;;;;2.78;2.53;;;18.80;48.40;;;;;;4967859;28;20573;-71
2023/01/28 01:28:43;;;;;;;2.80;2.60;;;18.80;48.90;;;;;;4940025;28;20206;-71
2023/01/28 01:31:16;;;;;;;2.90;2.70;;;18.80;48.40;;;;;;4968563;28;20199;-72
2023/01/28 01:33:44;;;;;;;3.08;2.88;;;18.80;48.30;;;;;;4967126;28;20572;-71
2023/01/28 01:36:13;;;;;;;2.88;2.60;;;18.80;48.30;;;;;;4972240;28;20201;-71
2023/01/28 01:38:40;;;;;;;2.53;2.33;;;18.80;48.30;;;;;;4980731;28;20225;-72
2023/01/28 01:41:15;;;;;;;2.90;2.70;;;18.80;48.20;;;;;;4972563;28;20215;-71
2023/01/28 01:44:00;;;;;;;2.72;2.53;;;18.80;48.30;;;;;;4959181;28;20231;-71
2023/01/28 01:46:50;;;;;;;3.00;2.70;;;18.80;48.30;;;;;;4970445;28;20581;-72
2023/01/28 01:49:27;;;;;;;2.88;2.67;;;18.80;48.20;;;;;;4967949;28;20252;-71
2023/01/28 01:52:12;;;;;;;3.10;2.75;;;18.80;48.20;;;;;;4974843;28;20188;-71
2023/01/28 01:54:41;;;;;;;2.65;2.45;;;18.80;48.20;;;;;;4950604;28;20197;-71
2023/01/28 01:57:14;;;;;;;3.05;2.80;;;18.80;48.20;;;;;;4963693;28;20224;-71
2023/01/28 01:59:42;;;;;;;3.00;2.80;;;18.80;48.30;;;;;;4971652;28;20217;-72
2023/01/28 02:02:11;;;;;;;2.63;2.42;;;18.80;48.20;;;;;;4963853;28;20181;-71
2023/01/28 02:04:43;;;;;;;2.75;2.42;;;18.80;48.30;;;;;;4970757;28;20200;-71
2023/01/28 02:07:13;;;;;;;2.40;2.20;;;18.80;48.30;;;;;;4975489;28;20328;-71
2023/01/28 02:09:40;;;;;;;2.70;2.50;;;18.80;48.30;;;;;;4989115;28;20220;-71
2023/01/28 02:12:21;;;;;;;2.40;2.13;;;18.80;48.30;;;;;;4971505;28;20612;-71
2023/01/28 02:14:57;;;;;;;2.50;2.30;;;18.80;48.20;;;;;;4955787;28;20190;-71
2023/01/28 02:17:24;;;;;;;3.15;2.85;;;18.80;48.20;;;;;;4940094;28;20193;-71
2023/01/28 02:20:00;;;;;;;2.60;2.40;;;18.80;48.30;;;;;;4954295;28;20214;-72
2023/01/28 02:22:45;;;;;;;2.83;2.40;;;18.80;48.20;;;;;;4980093;28;20227;-71
2023/01/28 02:26:05;;;;;;;2.58;2.40;;;18.80;48.20;;;;;;4948239;28;20200;-72
2023/01/28 02:28:53;;;;;;;2.50;2.30;;;18.80;48.20;;;;;;4939343;28;20210;-71
2023/01/28 02:31:32;;;;;;;2.70;2.50;;;18.80;48.20;;;;;;4962100;28;20255;-71
2023/01/28 02:34:10;;;;;;;3.00;2.80;;;18.80;48.30;;;;;;4957272;28;20228;-71
2023/01/28 02:36:53;;;;;;;3.20;2.85;;;18.80;48.20;;;;;;4972228;28;20189;-71
2023/01/28 02:39:28;;;;;;;2.50;2.30;;;18.80;48.20;;;;;;4939422;28;20220;-71
2023/01/28 02:42:10;;;;;;;2.80;2.60;;;18.80;48.30;;;;;;4989637;28;20271;-71
2023/01/28 02:44:36;;;;;;;3.03;2.15;;;18.80;48.30;;;;;;4974859;28;20562;-71
2023/01/28 02:50:01;;;;;;;2.75;2.55;;;18.80;48.20;;;;;;4973773;28;20246;-71
2023/01/28 02:56:28;;;;;;;2.50;2.30;;;18.80;48.20;;;;;;4975758;28;20251;-73
2023/01/28 02:59:29;;;;;;;3.72;2.58;;;18.80;48.20;;;;;;4977874;28;20313;-71
2023/01/28 03:02:19;;;;;;;2.38;2.17;;;18.80;48.30;;;;;;4971057;28;20212;-71
2023/01/28 03:04:57;;;;;;;2.70;2.20;;;18.80;48.20;;;;;;4979636;28;20573;-71
2023/01/28 03:07:30;;;;;;;2.42;2.22;;;18.80;48.20;;;;;;4974656;28;20197;-71
2023/01/28 03:10:04;;;;;;;2.40;2.20;;;18.70;48.20;;;;;;4990979;28;20211;-71
2023/01/28 03:38:47;;;;;;;2.45;2.20;;;18.70;48.00;;;;;;4968920;28;20213;-71
2023/01/28 03:41:22;;;;;;;1.92;1.83;;;18.80;48.20;;;;;;4974177;28;20233;-71
2023/01/28 03:43:49;;;;;;;2.10;2.00;;;18.80;48.20;;;;;;4966102;28;20189;-71
2023/01/28 03:46:17;;;;;;;1.95;1.85;;;18.80;48.00;;;;;;4966401;28;20178;-71
2023/01/28 03:48:44;;;;;;;1.70;1.60;;;18.80;48.20;;;;;;4974177;28;20212;-71
2023/01/28 03:51:11;;;;;;;1.92;1.83;;;18.80;48.10;;;;;;4965469;28;20194;-71
2023/01/28 03:53:39;;;;;;;2.00;1.80;;;18.80;48.10;;;;;;4973370;28;20219;-71
2023/01/28 03:56:06;;;;;;;2.00;1.90;;;18.80;48.00;;;;;;4982219;28;20192;-71
2023/01/28 04:01:17;;;;;;;2.03;1.92;;;18.70;48.00;;;;;;4973206;28;20236;-71
2023/01/28 04:03:43;;;;;;;2.00;1.90;;;18.80;48.10;;;;;;4966150;28;20220;-71
2023/01/28 04:06:14;;;;;;;1.83;1.73;;;18.80;48.00;;;;;;4970391;28;20181;-71
2023/01/28 04:08:58;;;;;;;2.00;1.90;;;18.80;48.00;;;;;;4985505;28;20589;-71
2023/01/28 04:11:43;;;;;;;2.15;2.00;;;18.80;48.00;;;;;;4979985;28;20282;-71
2023/01/28 04:14:14;;;;;;;2.13;2.00;;;18.80;48.00;;;;;;4977701;28;20188;-72
2023/01/28 04:16:44;;;;;;;2.05;1.95;;;18.80;48.00;;;;;;4968939;28;20192;-71
2023/01/28 04:19:12;;;;;;;1.88;1.77;;;18.80;48.00;;;;;;4958246;28;20216;-71
2023/01/28 04:21:39;;;;;;;2.22;2.03;;;18.80;48.00;;;;;;4965393;28;20219;-71
2023/01/28 04:24:05;;;;;;;1.92;1.83;;;18.80;48.00;;;;;;4969663;28;20192;-71
2023/01/28 04:26:32;;;;;;;2.38;2.17;;;18.80;48.00;;;;;;4970112;28;20205;-71
2023/01/28 04:28:58;;;;;;;1.80;1.70;;;18.80;48.00;;;;;;4943010;28;20683;-71
2023/01/28 04:31:24;;;;;;;2.20;2.00;;;18.80;48.00;;;;;;4963002;28;20241;-71
2023/01/28 04:34:13;;;;;;;2.20;2.00;;;18.80;48.00;;;;;;4975524;28;20201;-71
2023/01/28 04:36:49;;;;;;;2.40;2.20;;;18.80;47.90;;;;;;4965464;28;20243;-71
2023/01/28 04:39:34;;;;;;;2.10;2.00;;;18.80;48.00;;;;;;4980865;28;20223;-71
2023/01/28 04:42:13;;;;;;;1.90;1.80;;;18.80;48.00;;;;;;4964949;28;20189;-71
2023/01/28 04:45:00;;;;;;;2.13;2.00;;;18.80;48.00;;;;;;4991905;28;20223;-72
2023/01/28 04:47:38;;;;;;;1.77;1.67;;;18.90;48.00;;;;;;4953919;28;20239;-71
2023/01/28 04:50:24;;;;;;;1.92;1.80;;;18.80;47.90;;;;;;4975595;28;20185;-71
2023/01/28 04:53:08;;;;;;;1.90;1.80;;;18.80;48.00;;;;;;4976235;28;20196;-71
2023/01/28 04:55:47;;;;;;;1.95;1.83;;;18.90;48.00;;;;;;4967917;28;20189;-71
2023/01/28 04:58:13;;;;;;;2.00;1.90;;;18.80;48.00;;;;;;4968803;28;20293;-71
2023/01/28 05:00:41;;;;;;;1.80;1.70;;;18.90;48.00;;;;;;4962448;28;20247;-71
2023/01/28 05:03:08;;;;;;;2.03;1.92;;;18.90;48.00;;;;;;4965583;28;20190;-71
2023/01/28 05:05:33;;;;;;;1.73;1.63;;;18.80;47.90;;;;;;4941288;28;20204;-71
2023/01/28 05:08:14;;;;;;;1.75;1.50;;;18.80;47.90;;;;;;4964582;28;20690;-71
2023/01/28 05:10:40;;;;;;;1.90;1.80;;;18.90;48.00;;;;;;4964331;28;20201;-71
2023/01/28 05:13:06;;;;;;;1.83;1.73;;;18.90;48.00;;;;;;4951370;28;20196;-72
2023/01/28 05:15:32;;;;;;;1.73;1.63;;;18.90;48.00;;;;;;4968656;28;20185;-72
2023/01/28 05:17:58;;;;;;;2.15;1.95;;;18.90;48.00;;;;;;4989855;28;20181;-72
2023/01/28 05:20:26;;;;;;;1.70;1.60;;;18.90;48.00;;;;;;4969473;28;20243;-72
2023/01/28 05:22:55;;;;;;;1.67;1.58;;;18.90;48.00;;;;;;4956435;28;20614;-71
2023/01/28 05:25:24;;;;;;;1.60;1.50;;;18.90;48.00;;;;;;4969429;28;20216;-72
2023/01/28 05:27:51;;;;;;;1.85;1.73;;;18.90;48.00;;;;;;4956611;28;20268;-72
2023/01/28 05:30:19;;;;;;;1.63;1.52;;;18.90;48.00;;;;;;4975308;28;20279;-71
2023/01/28 05:32:45;;;;;;;2.10;2.00;;;18.90;48.00;;;;;;4972128;28;20190;-71
2023/01/28 05:35:12;;;;;;;1.70;1.60;;;18.90;48.00;;;;;;4951569;28;20220;-71
2023/01/28 05:37:38;;;;;;;1.92;1.80;;;18.90;48.00;;;;;;4991317;28;20193;-72
2023/01/28 05:40:05;;;;;;;2.05;1.90;;;18.90;48.00;;;;;;4951313;28;20219;-72
2023/01/28 05:42:31;;;;;;;1.83;1.73;;;18.90;48.00;;;;;;4959146;28;20189;-71
2023/01/28 05:45:11;;;;;;;2.00;1.90;;;18.90;48.00;;;;;;4972215;28;20213;-72
2023/01/28 05:47:56;;;;;;;1.88;1.77;;;18.90;47.90;;;;;;4975016;28;20192;-71
2023/01/28 05:50:34;;;;;;;1.77;1.67;;;18.90;48.00;;;;;;4995973;23;20736;-66
2023/01/28 05:53:11;;;;;;;2.05;1.95;;;18.90;47.90;;;;;;4946523;28;20189;-66
2023/01/28 05:55:39;;;;;;;1.92;1.83;;;18.90;47.90;;;;;;4960591;28;20544;-65
2023/01/28 05:58:05;;;;;;;1.60;1.50;;;18.90;47.90;;;;;;4954624;28;20205;-66
2023/01/28 06:00:31;;;;;;;1.90;1.77;;;18.90;47.90;;;;;;4941916;28;20206;-65
2023/01/28 06:03:00;;;;;;;1.95;1.75;;;18.90;48.00;;;;;;4961728;28;20197;-66
2023/01/28 06:05:26;;;;;;;1.70;1.60;;;18.90;48.00;;;;;;4971712;28;20185;-66
2023/01/28 06:07:52;;;;;;;2.00;1.90;;;18.90;48.00;;;;;;4955496;28;20201;-65
2023/01/28 06:10:19;;;;;;;2.20;2.00;;;18.90;48.00;;;;;;4943805;28;20212;-64
2023/01/28 06:12:45;;;;;;;1.88;1.77;;;18.90;47.90;;;;;;4936176;29;20194;-65
2023/01/28 06:15:31;;;;;;;1.90;1.80;;;18.90;47.90;;;;;;4944377;28;20189;-66
2023/01/28 06:18:04;;;;;;;1.77;1.67;;;18.90;47.90;;;;;;4971727;28;20196;-65
2023/01/28 06:20:33;;;;;;;2.17;2.05;;;18.90;47.90;;;;;;4947538;28;20213;-65
2023/01/28 06:22:59;;;;;;;1.88;1.77;;;18.90;48.50;;;;;;4971414;28;20592;-65
2023/01/28 06:25:25;;;;;;;2.13;1.90;;;18.90;47.90;;;;;;4960556;28;20192;-65
2023/01/28 06:27:52;;;;;;;1.60;1.50;;;18.90;47.90;;;;;;4939791;28;20190;-65
2023/01/28 06:30:18;;;;;;;1.75;1.65;;;19.00;47.90;;;;;;4963720;28;20264;-65
2023/01/28 06:32:44;;;;;;;2.22;1.88;;;18.90;47.80;;;;;;4944663;29;20274;-65
2023/01/28 06:35:10;;;;;;;2.05;1.90;;;18.90;47.90;;;;;;4974452;28;20197;-65
2023/01/28 06:37:36;;;;;;;1.90;1.80;;;18.90;47.80;;;;;;4945336;29;20274;-65
2023/01/28 06:40:03;;;;;;;2.10;1.90;;;19.00;48.00;;;;;;4949375;28;20353;-66
2023/01/28 06:42:28;;;;;;;2.10;2.00;;;19.00;48.00;;;;;;4959211;28;20185;-65
2023/01/28 06:44:54;;;;;;;1.73;1.63;;;18.90;47.80;;;;;;4975004;28;20200;-65
2023/01/28 06:47:20;;;;;;;1.90;1.80;;;19.00;48.00;;;;;;4971348;28;20656;-65
2023/01/28 06:49:45;;;;;;;2.05;1.85;;;19.00;48.00;;;;;;4964174;28;20236;-66
2023/01/28 06:52:11;;;;;;;1.80;1.70;;;19.00;48.00;;;;;;4975027;28;20198;-65
2023/01/28 06:54:37;;;;;;;2.10;2.00;;;19.00;48.00;;;;;;4970625;28;20198;-65
2023/01/28 06:57:03;;;;;;;1.95;1.75;;;19.00;48.00;;;;;;4957122;28;20197;-65
2023/01/28 06:59:28;;;;;;;1.90;1.80;;;19.00;48.00;;;;;;4954001;28;20209;-65
2023/01/28 07:01:54;;;;;;;2.10;1.90;;;19.00;47.90;;;;;;4963588;28;20212;-65
2023/01/28 07:04:20;;;;;;;1.75;1.65;;;19.00;47.90;;;;;;4973812;28;20209;-65
2023/01/28 07:06:45;;;;;;;2.25;2.05;;;19.00;48.00;;;;;;4967877;28;20199;-65
2023/01/28 07:09:11;;;;;;;1.65;1.50;;;19.00;48.00;;;;;;4941645;28;20214;-65
2023/01/28 07:11:37;;;;;;;1.77;1.67;;;19.00;48.00;;;;;;4975678;28;20198;-65
2023/01/28 07:14:03;;;;;;;2.10;1.90;;;19.00;47.90;;;;;;4965037;28;20217;-66
2023/01/28 07:16:29;;;;;;;1.60;1.50;;;19.00;48.00;;;;;;4960073;28;20190;-65
2023/01/28 07:18:55;;;;;;;2.00;1.80;;;19.00;47.90;;;;;;4953131;28;20264;-65
2023/01/28 07:21:20;;;;;;;1.88;1.77;;;19.00;48.00;;;;;;4972640;28;20213;-65
2023/01/28 07:23:46;;;;;;;1.80;1.70;;;19.00;47.90;;;;;;4944052;28;20340;-65
2023/01/28 07:26:12;;;;;;;1.80;1.70;;;19.00;48.00;;;;;;4958483;28;20194;-65
2023/01/28 07:28:38;;;;;;;2.20;2.00;;;19.00;48.00;;;;;;4940223;28;20217;-65
2023/01/28 07:31:04;;;;;;;1.70;1.60;;;19.00;48.00;;;;;;4940035;28;20194;-66
2023/01/28 07:33:29;;;;;;;2.03;1.83;;;19.00;47.90;;;;;;4956884;28;20689;-65
2023/01/28 07:35:55;;;;;;;2.00;1.90;;;19.00;47.90;;;;;;4956602;28;20241;-65
2023/01/28 07:38:21;;;;;;;1.98;1.88;;;19.00;48.00;;;;;;4955584;28;20250;-65
2023/01/28 07:40:47;;;;;;;2.00;1.90;;;19.00;47.90;;;;;;4939984;29;20310;-65
2023/01/28 07:43:13;;;;;;;2.13;1.70;;;19.00;47.90;;;;;;4940132;28;20201;-66
2023/01/28 07:45:40;;;;;;;1.92;1.83;;;19.00;47.90;;;;;;4939427;29;20190;-66
2023/01/28 07:48:10;;;;;;;1.83;1.73;;;19.00;47.90;;;;;;4936980;28;20222;-65
2023/01/28 07:50:37;;;;;;;2.78;1.83;;;19.00;48.00;;;;;;4954886;28;20221;-66
2023/01/28 07:53:10;;;;;;;2.15;1.95;;;19.00;48.00;;;;;;4939527;28;20183;-66
2023/01/28 07:55:36;;;;;;;1.80;1.70;;;19.00;47.90;;;;;;4938387;29;20693;-66
2023/01/28 07:58:05;;;;;;;2.35;2.17;;;19.00;47.90;;;;;;4957936;28;20190;-66
2023/01/28 08:00:35;;;;;;;2.05;1.70;;;19.00;47.90;;;;;;4938651;29;20210;-66
2023/01/28 08:03:17;;;;;;;2.17;1.98;;;19.00;47.90;;;;;;4955543;28;20186;-66
2023/01/28 08:05:49;;;;;;;2.00;1.90;;;19.10;48.00;;;;;;4954898;28;20237;-66
2023/01/28 08:08:16;;;;;;;2.08;1.90;;;19.00;47.90;;;;;;4958384;28;20186;-65
2023/01/28 08:10:42;;;;;;;2.20;2.00;;;19.00;47.90;;;;;;4955119;28;20731;-66
2023/01/28 08:13:10;;;;;;;1.98;1.88;;;19.00;48.00;;;;;;4939524;28;20257;-66
2023/01/28 08:15:36;;;;;;;2.55;2.35;;;19.00;47.90;;;;;;4938973;29;20198;-66
2023/01/28 08:18:04;;;;;;;1.98;1.88;;;19.00;47.90;;;;;;4940713;28;20253;-66
2023/01/28 08:20:30;;;;;;;2.45;2.25;;;19.10;48.00;;;;;;4954083;28;20214;-66
2023/01/28 08:23:18;;;;;;;3.60;2.35;;;19.00;47.90;;;;;;4952961;28;20191;-66
2023/01/28 08:25:45;;;;;;;1.95;1.85;;;19.00;47.90;;;;;;4951389;28;20186;-66
2023/01/28 08:28:12;;;;;;;1.90;1.80;;;19.10;47.90;;;;;;4959465;28;20218;-66
2023/01/28 08:30:39;;;;;;;2.20;1.95;;;19.00;47.90;;;;;;4960929;28;20222;-66
2023/01/28 08:33:08;;;;;;;1.98;1.88;;;19.10;47.90;;;;;;4953907;28;20195;-66
2023/01/28 08:35:35;;;;;;;2.20;2.00;;;19.00;47.80;;;;;;4966746;28;20200;-67
2023/01/28 08:38:04;;;;;;;2.30;2.10;;;19.00;47.80;;;;;;4966642;28;20194;-66
2023/01/28 08:40:30;;;;;;;2.58;2.38;;;19.10;47.90;;;;;;4972850;28;20221;-66
2023/01/28 08:42:56;;;;;;;2.20;2.00;;;19.10;47.90;;;;;;4957020;28;20185;-66
2023/01/28 08:45:24;;;;;;;2.05;1.88;;;19.10;47.90;;;;;;4973105;28;20190;-66
2023/01/28 08:48:00;;;;;;;2.25;2.10;;;19.10;47.90;;;;;;4966028;28;20209;-66
2023/01/28 08:50:32;;;;;;;2.28;2.08;;;19.10;47.90;;;;;;4988985;28;20224;-66
2023/01/28 08:53:01;;;;;;;2.40;2.20;;;19.10;48.50;;;;;;4966112;28;20211;-66
2023/01/28 08:55:29;;;;;;;2.70;2.50;;;19.10;47.90;;;;;;4968917;28;20179;-66
2023/01/28 08:57:55;;;;;;;2.33;2.13;;;19.10;47.90;;;;;;4952782;28;20201;-66
2023/01/28 09:00:22;;;;;;;2.47;2.28;;;19.10;47.90;;;;;;4946472;28;20221;-65
2023/01/28 09:02:52;;;;;;;2.97;2.05;;;19.10;47.90;;;;;;4960873;28;20185;-66
2023/01/28 09:05:20;;;;;;;2.17;2.03;;;19.10;47.90;;;;;;4964660;28;20194;-66
2023/01/28 09:07:47;;;;;;;2.22;2.03;;;19.10;47.90;;;;;;4973732;28;20182;-65
2023/01/28 09:10:13;;;;;;;3.35;2.60;;;19.10;47.90;;;;;;4940376;28;20247;-65
2023/01/28 09:12:39;;;;;;;2.08;1.90;;;19.10;47.90;;;;;;4972058;28;20201;-66
2023/01/28 09:15:06;;;;;;;2.72;2.53;;;19.20;48.00;;;;;;4938431;28;20239;-66
2023/01/28 09:17:31;;;;;;;2.50;2.30;;;19.10;47.90;;;;;;4952056;29;20191;-66
2023/01/28 09:19:57;;;;;;;2.40;2.20;;;19.10;47.90;;;;;;4969713;28;20263;-66
2023/01/28 09:22:23;;;;;;;2.85;2.30;;;19.10;47.90;;;;;;4956024;28;20188;-66
2023/01/28 09:24:49;;;;;;;2.65;2.40;;;19.10;47.80;;;;;;4965562;28;20212;-66
2023/01/28 09:27:15;;;;;;;2.58;2.38;;;19.20;47.90;;;;;;4955932;28;20272;-66
2023/01/28 09:29:41;;;;;;;2.47;2.28;;;19.20;47.90;;;;;;4972097;28;20288;-66
2023/01/28 09:32:07;;;;;;;1.98;1.88;;;19.10;47.90;;;;;;4955955;28;20194;-65
2023/01/28 09:34:33;;;;;;;2.47;2.28;;;19.10;47.90;;;;;;4948545;28;20181;-66
2023/01/28 09:36:59;;;;;;;3.13;2.88;;;19.20;47.90;;;;;;4936957;29;20194;-66
2023/01/28 09:39:27;;;;;;;2.58;2.38;;;19.20;47.90;;;;;;4953533;28;20201;-66
2023/01/28 09:42:45;;;;;;;2.95;2.72;;;19.20;47.90;;;;;;4954093;28;20218;-66
2023/01/28 09:45:47;;;;;;;4.07;2.53;;;19.20;47.90;;;;;;4937484;28;20245;-66
2023/01/28 09:48:20;;;;;;;2.72;2.47;;;19.20;47.90;;;;;;4952934;28;20194;-67
2023/01/28 09:50:51;;;;;;;2.83;2.63;;;19.20;47.90;;;;;;4956915;28;20675;-66
2023/01/28 09:53:28;;;;;;;2.72;2.53;;;19.20;47.90;;;;;;4942063;28;20282;-66
2023/01/28 09:56:15;;;;;;;2.97;2.78;;;19.20;47.90;;;;;;4952434;28;20245;-66
2023/01/28 09:58:42;;;;;;;2.75;2.55;;;19.20;47.90;;;;;;4936008;29;20225;-66
2023/01/28 10:01:36;;;;;;;2.42;2.22;;;19.20;47.90;;;;;;4954826;28;20228;-65
2023/01/28 10:04:22;;;;;;;3.15;2.80;;;19.20;47.90;;;;;;4927064;29;20281;-66
2023/01/28 10:07:09;;;;;;;3.25;2.95;;;19.20;47.90;;;;;;4951854;28;20206;-65
2023/01/28 10:09:55;;;;;;;3.05;2.80;;;19.20;47.90;;;;;;4936825;29;20300;-66
2023/01/28 10:12:48;;;;;;;3.35;3.05;;;19.20;47.90;;;;;;4956588;28;20194;-66
2023/01/28 10:15:29;;;;;;;3.22;2.63;;;19.20;47.90;;;;;;4942181;28;20201;-66
2023/01/28 10:18:08;;;;;;;2.47;2.28;;;19.20;47.90;;;;;;4955107;28;20281;-66
2023/01/28 10:20:54;;;;;;;2.50;2.30;;;19.20;47.90;;;;;;4936244;29;20225;-65
2023/01/28 10:23:34;;;;;;;2.63;2.42;;;19.30;48.00;;;;;;4958415;28;20214;-65
2023/01/28 10:26:06;;;;;;;3.03;2.83;;;19.20;47.90;;;;;;4953805;28;20679;-65
2023/01/28 10:28:34;;;;;;;3.42;2.70;;;19.30;48.00;;;;;;4952314;28;20187;-65
2023/01/28 10:31:00;;;;;;;3.35;3.05;;;19.30;47.90;;;;;;4938556;29;20179;-65
2023/01/28 10:33:36;;;;;;;2.80;2.60;;;19.30;48.00;;;;;;4956649;28;20240;-65
2023/01/28 10:36:03;;;;;;;2.92;2.70;;;19.30;48.00;;;;;;4956700;28;20210;-65
2023/01/28 10:38:30;;;;;;;2.85;2.65;;;19.30;48.00;;;;;;4957514;28;20205;-65
2023/01/28 10:41:02;;;;;;;2.95;2.72;;;19.30;48.00;;;;;;4955329;28;20245;-65
2023/01/28 10:43:39;;;;;;;2.85;2.63;;;19.30;48.00;;;;;;4938799;28;20197;-65
2023/01/28 10:46:21;;;;;;;3.03;2.80;;;19.30;48.00;;;;;;4938077;29;20183;-65
2023/01/28 10:49:02;;;;;;;3.78;3.13;;;19.30;48.00;;;;;;4935844;29;20222;-65
2023/01/28 10:51:39;;;;;;;3.20;2.90;;;19.30;48.00;;;;;;4935516;28;20194;-65
2023/01/28 10:54:21;;;;;;;2.85;2.65;;;19.30;48.00;;;;;;4952118;28;20241;-65
2023/01/28 10:56:56;;;;;;;3.25;2.95;;;19.30;47.90;;;;;;4952008;28;20783;-65
2023/01/28 10:59:41;;;;;;;2.80;2.60;;;19.30;47.90;;;;;;4951755;28;20251;-65
2023/01/28 11:02:36;;;;;;;2.65;2.45;;;19.30;48.00;;;;;;4935581;29;20668;-65
2023/01/28 11:05:05;;;;;;;2.67;2.30;;;19.30;48.00;;;;;;4943374;28;20207;-65
2023/01/28 11:07:31;;;;;;;2.90;2.67;;;19.30;48.00;;;;;;4952223;28;20191;-65
2023/01/28 11:09:57;;;;;;;3.03;2.83;;;19.30;48.00;;;;;;4961302;28;20218;-66
2023/01/28 11:12:27;;;;;;;3.40;2.70;;;19.30;47.90;;;;;;4951275;28;20202;-65
2023/01/28 11:15:05;;;;;;;2.72;2.53;;;19.30;48.00;;;;;;4959766;28;20280;-65
2023/01/28 11:17:37;;;;;;;2.75;2.55;;;19.30;48.00;;;;;;4947633;28;20225;-66
2023/01/28 11:20:19;;;;;;;3.10;2.80;;;19.30;47.90;;;;;;4966882;28;20602;-66
2023/01/28 11:22:47;;;;;;;2.95;2.70;;;19.30;47.80;;;;;;4973428;28;20198;-66
2023/01/28 11:25:39;;;;;;;2.53;2.33;;;19.30;47.90;;;;;;4956405;28;20188;-66
2023/01/28 11:28:17;;;;;;;3.08;2.88;;;19.30;47.80;;;;;;4966370;28;20289;-65
2023/01/28 11:30:50;;;;;;;3.30;3.00;;;19.30;47.80;;;;;;4963792;28;20205;-65
2023/01/28 11:33:22;;;;;;;2.83;2.63;;;19.30;47.80;;;;;;4963654;28;20213;-65
2023/01/28 11:36:20;;;;;;;3.08;2.78;;;19.30;47.80;;;;;;4968858;28;20197;-66
2023/01/28 11:38:55;;;;;;;2.85;2.60;;;19.40;47.90;;;;;;4921850;29;20373;-66
2023/01/28 11:41:29;;;;;;;3.05;2.58;;;19.40;47.90;;;;;;4955774;28;20210;-66
2023/01/28 11:43:59;;;;;;;3.03;2.83;;;19.30;47.90;;;;;;4955012;28;20186;-66
2023/01/28 11:46:52;;;;;;;2.92;2.72;;;19.40;47.90;;;;;;4939431;28;20194;-66
2023/01/28 11:49:54;;;;;;;3.50;3.20;;;19.30;47.80;;;;;;4952786;28;20252;-66
2023/01/28 11:52:43;;;;;;;3.25;2.95;;;19.30;47.90;;;;;;4954623;28;20251;-66
2023/01/28 11:56:00;;;;;;;3.35;3.05;;;19.40;47.90;;;;;;4973932;28;20250;-68
2023/01/28 11:59:17;;;;;;;5.05;3.10;;;19.30;47.90;;;;;;4924907;28;20209;-65
2023/01/28 12:02:33;;;;;;;3.40;3.10;;;19.40;48.00;;;;;;4952657;28;20258;-65
2023/01/28 12:05:38;;;;;;;3.17;2.80;;;19.30;47.90;;;;;;4936189;29;20195;-65
2023/01/28 12:08:34;;;;;;;2.58;2.38;;;19.40;47.90;;;;;;4938892;29;20194;-65
2023/01/28 12:15:15;;;;;;;3.40;3.10;;;19.40;47.90;;;;;;4953562;28;20206;-65
2023/01/28 12:18:02;;;;;;;2.83;2.63;;;19.40;47.90;;;;;;4977533;23;20248;-72
2023/01/28 12:21:07;;;;;;;3.25;2.95;;;19.40;48.00;;;;;;4939734;29;20225;-72
2023/01/28 12:23:53;;;;;;;2.90;2.70;;;19.40;48.00;;;;;;4924466;29;20190;-72
2023/01/28 12:26:45;;;;;;;2.58;2.38;;;19.40;48.00;;;;;;4957684;29;20214;-72
2023/01/28 12:29:46;;;;;;;3.40;3.10;;;19.40;48.00;;;;;;4942602;29;20193;-72
2023/01/28 12:32:46;;;;;;;3.20;3.00;;;19.40;48.00;;;;;;4935461;29;20209;-72
2023/01/28 12:35:51;;;;;;;3.00;2.75;;;19.40;48.00;;;;;;4941303;29;20281;-72
2023/01/28 12:38:55;;;;;;;3.00;2.80;;;19.40;48.00;;;;;;4942931;29;20194;-72
2023/01/28 12:41:28;;;;;;;2.97;2.78;;;19.40;48.00;;;;;;4943432;29;20225;-72
2023/01/28 12:44:10;;;;;;;2.70;2.50;;;19.40;48.00;;;;;;4927065;28;20185;-72
2023/01/28 12:46:54;;;;;;;3.30;3.00;;;19.40;47.90;;;;;;4940045;29;20210;-73
2023/01/28 12:49:33;;;;;;;2.70;2.50;;;19.40;48.00;;;;;;4940082;29;20229;-73
2023/01/28 12:52:07;;;;;;;3.30;3.00;;;19.40;48.00;;;;;;4940692;29;20202;-73
2023/01/28 12:55:04;;;;;;;2.95;2.70;;;19.40;48.00;;;;;;4956238;29;20591;-73
2023/01/28 12:57:33;;;;;;;2.83;2.63;;;19.50;48.10;;;;;;4956221;29;20220;-72
2023/01/28 13:00:05;;;;;;;2.80;2.58;;;19.50;48.20;;;;;;4948578;29;20201;-72
2023/01/28 13:02:41;;;;;;;2.80;2.60;;;19.50;48.10;;;;;;4922802;29;20706;-72
2023/01/28 13:05:16;;;;;;;3.00;2.80;;;19.50;48.20;;;;;;4938827;29;20190;-72
2023/01/28 13:08:04;;;;;;;2.85;2.65;;;19.50;48.20;;;;;;4939691;29;20249;-73
2023/01/28 13:10:46;;;;;;;2.97;2.78;;;19.50;48.10;;;;;;4938101;29;20209;-72
2023/01/28 13:13:29;;;;;;;2.53;2.33;;;19.50;48.20;;;;;;4936924;29;20187;-72
2023/01/28 13:15:55;;;;;;;2.70;2.50;;;19.50;48.10;;;;;;4938335;29;20225;-73
2023/01/28 13:18:40;;;;;;;2.80;2.60;;;19.50;48.20;;;;;;4939794;29;20190;-72
2023/01/28 13:21:35;;;;;;;2.80;2.60;;;19.50;48.20;;;;;;4953139;29;20230;-72
2023/01/28 13:24:00;;;;;;;3.17;2.95;;;19.50;48.20;;;;;;4922326;29;20194;-72
2023/01/28 13:26:36;;;;;;;3.10;2.90;;;19.50;48.20;;;;;;4938714;29;20214;-72
2023/01/28 13:29:13;;;;;;;2.75;2.50;;;19.40;48.10;;;;;;4938905;29;20193;-72
2023/01/28 13:31:46;;;;;;;2.72;2.53;;;19.40;48.20;;;;;;4939094;29;20682;-72
2023/01/28 13:34:39;;;;;;;2.92;2.60;;;19.50;48.20;;;;;;4948723;29;20197;-72
2023/01/28 13:37:38;;;;;;;2.67;2.47;;;19.40;48.10;;;;;;4924025;29;20647;-72
2023/01/28 13:40:13;;;;;;;2.97;2.78;;;19.40;48.10;;;;;;4954245;28;20218;-73
2023/01/28 13:42:40;;;;;;;2.65;2.45;;;19.50;48.20;;;;;;4956649;29;20194;-72
2023/01/28 13:45:15;;;;;;;3.70;2.85;;;19.50;48.20;;;;;;4939053;29;20197;-73
2023/01/28 13:47:46;;;;;;;2.70;2.50;;;19.40;48.10;;;;;;4939141;29;20309;-72
2023/01/28 13:50:18;;;;;;;2.80;2.60;;;19.40;48.10;;;;;;4923426;29;20186;-72
2023/01/28 13:53:01;;;;;;;2.80;2.60;;;19.40;48.10;;;;;;4952025;28;20189;-72
2023/01/28 13:55:36;;;;;;;3.05;2.55;;;19.40;48.10;;;;;;4935919;29;20230;-73
2023/01/28 13:58:50;;;;;;;2.92;2.65;;;19.40;48.10;;;;;;4922091;29;20186;-73
2023/01/28 14:01:53;;;;;;;3.30;3.00;;;19.50;48.20;;;;;;4910852;29;20225;-73